sensor_id;sensor_type;location;lat;lon;timestamp;pressure;altitude;pressure_sealevel;temperature;humidity
44138;BME280;29800;55.942;37.314;2024-03-02T00:01:10;100738.94;;;5.27;64.84
44138;BME280;29800;55.942;37.314;2024-03-02T00:03:39;100739.38;;;5.31;64.99
44138;BME280;29800;55.942;37.314;2024-03-02T00:06:07;100735.56;;;5.25;64.73
44138;BME280;29800;55.942;37.314;2024-03-02T00:08:33;100737.72;;;5.30;64.27
44138;BME280;29800;55.942;37.314;2024-03-02T00:11:00;100729.84;;;5.35;64.19
44138;BME280;29800;55.942;37.314;2024-03-02T00:13:29;100734.03;;;5.38;63.88
44138;BME280;29800;55.942;37.314;2024-03-02T00:15:56;100725.69;;;5.39;64.20
44138;BME280;29800;55.942;37.314;2024-03-02T00:18:30;100730.34;;;5.45;64.14
44138;BME280;29800;55.942;37.314;2024-03-02T00:20:57;100728.66;;;5.44;64.32
44138;BME280;29800;55.942;37.314;2024-03-02T00:23:27;100730.53;;;5.44;64.01
44138;BME280;29800;55.942;37.314;2024-03-02T00:25:54;100732.50;;;5.50;63.75
44138;BME280;29800;55.942;37.314;2024-03-02T00:28:26;100724.81;;;5.53;64.00
44138;BME280;29800;55.942;37.314;2024-03-02T00:30:59;100729.03;;;5.56;63.67
44138;BME280;29800;55.942;37.314;2024-03-02T00:33:32;100722.28;;;5.52;63.96
44138;BME280;29800;55.942;37.314;2024-03-02T00:35:59;100728.75;;;5.51;63.67
44138;BME280;29800;55.942;37.314;2024-03-02T00:38:27;100725.81;;;5.52;63.36
44138;BME280;29800;55.942;37.314;2024-03-02T00:40:54;100728.94;;;5.49;63.60
44138;BME280;29800;55.942;37.314;2024-03-02T00:43:39;100734.31;;;5.64;63.90
44138;BME280;29800;55.942;37.314;2024-03-02T00:46:07;100733.97;;;5.52;63.30
44138;BME280;29800;55.942;37.314;2024-03-02T00:48:33;100732.50;;;5.50;63.52
44138;BME280;29800;55.942;37.314;2024-03-02T00:51:03;100728.94;;;5.49;63.18
44138;BME280;29800;55.942;37.314;2024-03-02T00:53:30;100726.63;;;5.46;63.32
44138;BME280;29800;55.942;37.314;2024-03-02T00:55:59;100730.34;;;5.45;64.06
44138;BME280;29800;55.942;37.314;2024-03-02T00:58:26;100729.53;;;5.45;63.47
44138;BME280;29800;55.942;37.314;2024-03-02T01:00:52;100735.78;;;5.45;63.31
44138;BME280;29800;55.942;37.314;2024-03-02T01:03:19;100737.84;;;5.43;63.22
44138;BME280;29800;55.942;37.314;2024-03-02T01:05:45;100739.13;;;5.47;63.74
44138;BME280;29800;55.942;37.314;2024-03-02T01:08:11;100738.69;;;5.44;63.23
44138;BME280;29800;55.942;37.314;2024-03-02T01:10:37;100751.16;;;5.38;63.74
44138;BME280;29800;55.942;37.314;2024-03-02T01:13:04;100741.59;;;5.42;63.31
44138;BME280;29800;55.942;37.314;2024-03-02T01:15:30;100743.28;;;5.43;63.29
44138;BME280;29800;55.942;37.314;2024-03-02T01:17:56;100750.78;;;5.41;63.51
44138;BME280;29800;55.942;37.314;2024-03-02T01:20:23;100753.69;;;5.40;63.24
44138;BME280;29800;55.942;37.314;2024-03-02T01:22:50;100751.81;;;5.40;63.51
44138;BME280;29800;55.942;37.314;2024-03-02T01:25:16;100753.03;;;5.38;63.76
44138;BME280;29800;55.942;37.314;2024-03-02T01:27:43;100750.13;;;5.39;63.87
44138;BME280;29800;55.942;37.314;2024-03-02T01:30:10;100744.50;;;5.41;63.88
44138;BME280;29800;55.942;37.314;2024-03-02T01:32:39;100754.53;;;5.40;63.78
44138;BME280;29800;55.942;37.314;2024-03-02T01:35:06;100744.44;;;5.34;63.35
44138;BME280;29800;55.942;37.314;2024-03-02T01:37:33;100743.59;;;5.33;63.92
44138;BME280;29800;55.942;37.314;2024-03-02T01:39:59;100739.56;;;5.29;63.73
44138;BME280;29800;55.942;37.314;2024-03-02T01:42:25;100744.81;;;5.31;63.65
44138;BME280;29800;55.942;37.314;2024-03-02T01:44:51;100748.84;;;5.35;63.91
44138;BME280;29800;55.942;37.314;2024-03-02T01:47:18;100746.56;;;5.39;63.56
44138;BME280;29800;55.942;37.314;2024-03-02T01:49:44;100740.38;;;5.45;63.33
44138;BME280;29800;55.942;37.314;2024-03-02T01:52:10;100752.53;;;5.49;63.03
44138;BME280;29800;55.942;37.314;2024-03-02T01:54:37;100744.38;;;5.49;62.91
44138;BME280;29800;55.942;37.314;2024-03-02T01:57:03;100744.19;;;5.50;62.62
44138;BME280;29800;55.942;37.314;2024-03-02T01:59:29;100735.84;;;5.52;62.97
44138;BME280;29800;55.942;37.314;2024-03-02T02:01:56;100740.06;;;5.55;62.56
44138;BME280;29800;55.942;37.314;2024-03-02T02:04:22;100742.97;;;5.53;62.52
44138;BME280;29800;55.942;37.314;2024-03-02T02:06:53;100745.97;;;5.58;62.42
44138;BME280;29800;55.942;37.314;2024-03-02T02:09:19;100744.94;;;5.59;62.66
44138;BME280;29800;55.942;37.314;2024-03-02T02:11:46;100735.09;;;5.58;62.96
44138;BME280;29800;55.942;37.314;2024-03-02T02:14:13;100741.81;;;5.62;63.02
44138;BME280;29800;55.942;37.314;2024-03-02T02:16:40;100734.72;;;5.61;62.56
44138;BME280;29800;55.942;37.314;2024-03-02T02:19:06;100741.81;;;5.62;62.58
44138;BME280;29800;55.942;37.314;2024-03-02T02:21:32;100748.94;;;5.63;62.32
44138;BME280;29800;55.942;37.314;2024-03-02T02:23:58;100750.44;;;5.66;62.49
44138;BME280;29800;55.942;37.314;2024-03-02T02:26:24;100751.06;;;5.68;62.50
44138;BME280;29800;55.942;37.314;2024-03-02T02:28:50;100753.59;;;5.69;62.47
44138;BME280;29800;55.942;37.314;2024-03-02T02:31:17;100756.31;;;5.69;62.17
44138;BME280;29800;55.942;37.314;2024-03-02T02:33:43;100761.09;;;5.67;62.17
44138;BME280;29800;55.942;37.314;2024-03-02T02:36:09;100759.03;;;5.69;62.04
44138;BME280;29800;55.942;37.314;2024-03-02T02:38:39;100761.75;;;5.69;62.45
44138;BME280;29800;55.942;37.314;2024-03-02T02:41:06;100760.44;;;5.65;62.19
44138;BME280;29800;55.942;37.314;2024-03-02T02:43:32;100757.72;;;5.65;62.25
44138;BME280;29800;55.942;37.314;2024-03-02T02:45:58;100758.09;;;5.62;62.36
44138;BME280;29800;55.942;37.314;2024-03-02T02:48:24;100752.88;;;5.61;62.35
44138;BME280;29800;55.942;37.314;2024-03-02T02:50:51;100765.59;;;5.60;62.73
44138;BME280;29800;55.942;37.314;2024-03-02T02:53:17;100758.22;;;5.54;62.74
44138;BME280;29800;55.942;37.314;2024-03-02T02:55:43;100761.81;;;5.55;62.47
44138;BME280;29800;55.942;37.314;2024-03-02T02:58:09;100755.31;;;5.56;63.06
44138;BME280;29800;55.942;37.314;2024-03-02T03:00:35;100766.38;;;5.54;62.82
44138;BME280;29800;55.942;37.314;2024-03-02T03:03:02;100763.09;;;5.59;62.60
44138;BME280;29800;55.942;37.314;2024-03-02T03:05:28;100765.91;;;5.50;62.71
44138;BME280;29800;55.942;37.314;2024-03-02T03:07:54;100763.00;;;5.52;62.53
44138;BME280;29800;55.942;37.314;2024-03-02T03:10:20;100759.19;;;5.46;62.79
44138;BME280;29800;55.942;37.314;2024-03-02T03:12:49;100758.34;;;5.46;62.98
44138;BME280;29800;55.942;37.314;2024-03-02T03:15:15;100755.06;;;5.50;63.12
44138;BME280;29800;55.942;37.314;2024-03-02T03:17:42;100753.59;;;5.48;62.87
44138;BME280;29800;55.942;37.314;2024-03-02T03:20:08;100762.75;;;5.47;62.72
44138;BME280;29800;55.942;37.314;2024-03-02T03:22:37;100761.66;;;5.41;63.04
44138;BME280;29800;55.942;37.314;2024-03-02T03:25:03;100762.59;;;5.33;63.10
44138;BME280;29800;55.942;37.314;2024-03-02T03:27:30;100758.19;;;5.32;63.21
44138;BME280;29800;55.942;37.314;2024-03-02T03:29:56;100757.75;;;5.29;63.58
44138;BME280;29800;55.942;37.314;2024-03-02T03:32:22;100771.03;;;5.24;63.44
44138;BME280;29800;55.942;37.314;2024-03-02T03:34:48;100757.28;;;5.25;63.54
44138;BME280;29800;55.942;37.314;2024-03-02T03:37:14;100758.97;;;5.26;63.39
44138;BME280;29800;55.942;37.314;2024-03-02T03:39:41;100756.91;;;5.28;63.11
44138;BME280;29800;55.942;37.314;2024-03-02T03:42:07;100753.13;;;5.29;63.44
44138;BME280;29800;55.942;37.314;2024-03-02T03:44:33;100754.75;;;5.24;63.55
44138;BME280;29800;55.942;37.314;2024-03-02T03:47:00;100751.66;;;5.27;63.33
44138;BME280;29800;55.942;37.314;2024-03-02T03:49:28;100744.72;;;5.24;63.53
44138;BME280;29800;55.942;37.314;2024-03-02T03:51:54;100751.47;;;5.28;63.50
44138;BME280;29800;55.942;37.314;2024-03-02T03:54:20;100762.34;;;5.28;63.37
44138;BME280;29800;55.942;37.314;2024-03-02T03:56:46;100759.81;;;5.27;63.24
44138;BME280;29800;55.942;37.314;2024-03-02T03:59:13;100752.31;;;5.29;63.00
44138;BME280;29800;55.942;37.314;2024-03-02T04:01:39;100764.00;;;5.29;63.12
44138;BME280;29800;55.942;37.314;2024-03-02T04:04:05;100748.56;;;5.30;62.97
44138;BME280;29800;55.942;37.314;2024-03-02T04:06:31;100758.56;;;5.29;62.78
44138;BME280;29800;55.942;37.314;2024-03-02T04:08:57;100760.63;;;5.27;62.63
44138;BME280;29800;55.942;37.314;2024-03-02T04:11:24;100750.91;;;5.33;62.66
44138;BME280;29800;55.942;37.314;2024-03-02T04:13:50;100755.75;;;5.38;62.67
44138;BME280;29800;55.942;37.314;2024-03-02T04:16:16;100758.66;;;5.36;62.86
44138;BME280;29800;55.942;37.314;2024-03-02T04:18:42;100758.28;;;5.39;62.45
44138;BME280;29800;55.942;37.314;2024-03-02T04:21:08;100754.28;;;5.35;62.71
44138;BME280;29800;55.942;37.314;2024-03-02T04:23:34;100748.75;;;5.28;62.74
44138;BME280;29800;55.942;37.314;2024-03-02T04:26:01;100757.34;;;5.32;62.84
44138;BME280;29800;55.942;37.314;2024-03-02T04:28:27;100760.25;;;5.30;62.78
44138;BME280;29800;55.942;37.314;2024-03-02T04:30:53;100764.00;;;5.29;62.86
44138;BME280;29800;55.942;37.314;2024-03-02T04:33:20;100755.22;;;5.27;62.70
44138;BME280;29800;55.942;37.314;2024-03-02T04:35:46;100758.31;;;5.24;62.53
44138;BME280;29800;55.942;37.314;2024-03-02T04:38:12;100758.03;;;5.19;62.73
44138;BME280;29800;55.942;37.314;2024-03-02T04:40:38;100755.16;;;5.06;62.47
44138;BME280;29800;55.942;37.314;2024-03-02T04:43:04;100756.00;;;4.91;62.83
44138;BME280;29800;55.942;37.314;2024-03-02T04:45:31;100757.25;;;4.74;63.28
44138;BME280;29800;55.942;37.314;2024-03-02T04:47:57;100753.66;;;4.58;63.98
44138;BME280;29800;55.942;37.314;2024-03-02T04:50:23;100754.13;;;4.47;64.41
44138;BME280;29800;55.942;37.314;2024-03-02T04:52:49;100761.41;;;4.32;64.81
44138;BME280;29800;55.942;37.314;2024-03-02T04:55:15;100762.22;;;4.17;65.33
44138;BME280;29800;55.942;37.314;2024-03-02T04:57:50;100758.94;;;4.07;65.66
44138;BME280;29800;55.942;37.314;2024-03-02T05:00:20;100759.53;;;3.94;65.99
44138;BME280;29800;55.942;37.314;2024-03-02T05:02:47;100754.84;;;3.88;66.51
44138;BME280;29800;55.942;37.314;2024-03-02T05:05:13;100755.72;;;3.80;66.81
44138;BME280;29800;55.942;37.314;2024-03-02T05:07:41;100755.63;;;3.74;67.22
44138;BME280;29800;55.942;37.314;2024-03-02T05:10:10;100757.56;;;3.65;67.69
44138;BME280;29800;55.942;37.314;2024-03-02T05:12:40;100762.84;;;3.58;67.78
44138;BME280;29800;55.942;37.314;2024-03-02T05:15:10;100748.53;;;3.49;68.05
44138;BME280;29800;55.942;37.314;2024-03-02T05:17:37;100754.00;;;3.41;68.74
44138;BME280;29800;55.942;37.314;2024-03-02T05:20:05;100754.03;;;3.33;68.73
44138;BME280;29800;55.942;37.314;2024-03-02T05:22:31;100754.44;;;3.22;69.64
44138;BME280;29800;55.942;37.314;2024-03-02T05:25:00;100754.31;;;3.15;69.79
44138;BME280;29800;55.942;37.314;2024-03-02T05:27:27;100763.13;;;3.09;70.25
44138;BME280;29800;55.942;37.314;2024-03-02T05:29:53;100758.56;;;3.01;70.16
44138;BME280;29800;55.942;37.314;2024-03-02T05:32:19;100759.44;;;2.93;70.57
44138;BME280;29800;55.942;37.314;2024-03-02T05:34:45;100754.94;;;2.86;70.92
44138;BME280;29800;55.942;37.314;2024-03-02T05:37:12;100749.03;;;2.82;71.49
44138;BME280;29800;55.942;37.314;2024-03-02T05:39:38;100758.34;;;2.80;71.28
44138;BME280;29800;55.942;37.314;2024-03-02T05:42:04;100756.13;;;2.83;71.79
44138;BME280;29800;55.942;37.314;2024-03-02T05:44:30;100760.03;;;2.81;71.47
44138;BME280;29800;55.942;37.314;2024-03-02T05:46:56;100758.00;;;2.74;72.19
44138;BME280;29800;55.942;37.314;2024-03-02T05:49:23;100763.28;;;2.68;72.42
44138;BME280;29800;55.942;37.314;2024-03-02T05:51:49;100764.63;;;2.64;72.40
44138;BME280;29800;55.942;37.314;2024-03-02T05:54:15;100764.78;;;2.62;73.34
44138;BME280;29800;55.942;37.314;2024-03-02T05:56:41;100768.53;;;2.61;72.98
44138;BME280;29800;55.942;37.314;2024-03-02T05:59:07;100775.94;;;2.59;73.57
44138;BME280;29800;55.942;37.314;2024-03-02T06:01:45;100780.00;;;2.63;73.58
44138;BME280;29800;55.942;37.314;2024-03-02T06:04:18;100784.25;;;2.57;73.78
44138;BME280;29800;55.942;37.314;2024-03-02T06:06:44;100783.72;;;2.54;73.56
44138;BME280;29800;55.942;37.314;2024-03-02T06:09:10;100780.38;;;2.52;74.20
44138;BME280;29800;55.942;37.314;2024-03-02T06:11:40;100778.31;;;2.54;74.48
44138;BME280;29800;55.942;37.314;2024-03-02T06:14:08;100774.78;;;2.53;73.97
44138;BME280;29800;55.942;37.314;2024-03-02T06:16:34;100780.38;;;2.52;74.37
44138;BME280;29800;55.942;37.314;2024-03-02T06:19:01;100788.66;;;2.50;74.57
44138;BME280;29800;55.942;37.314;2024-03-02T06:21:28;100790.34;;;2.51;74.92
44138;BME280;29800;55.942;37.314;2024-03-02T06:23:54;100785.09;;;2.50;75.13
44138;BME280;29800;55.942;37.314;2024-03-02T06:26:20;100788.66;;;2.50;74.81
44138;BME280;29800;55.942;37.314;2024-03-02T06:28:47;100786.78;;;2.51;74.90
44138;BME280;29800;55.942;37.314;2024-03-02T06:31:13;100784.94;;;2.51;75.65
44138;BME280;29800;55.942;37.314;2024-03-02T06:33:39;100792.88;;;2.53;75.34
44138;BME280;29800;55.942;37.314;2024-03-02T06:36:06;100792.88;;;2.53;75.45
44138;BME280;29800;55.942;37.314;2024-03-02T06:38:35;100796.41;;;2.53;75.59
44138;BME280;29800;55.942;37.314;2024-03-02T06:41:01;100793.72;;;2.53;75.71
44138;BME280;29800;55.942;37.314;2024-03-02T06:43:28;100791.84;;;2.54;76.15
44138;BME280;29800;55.942;37.314;2024-03-02T06:45:54;100792.88;;;2.53;75.69
44138;BME280;29800;55.942;37.314;2024-03-02T06:48:20;100794.53;;;2.54;75.95
44138;BME280;29800;55.942;37.314;2024-03-02T06:50:47;100789.13;;;2.54;75.94
44138;BME280;29800;55.942;37.314;2024-03-02T06:53:16;100791.50;;;2.57;75.79
44138;BME280;29800;55.942;37.314;2024-03-02T06:55:44;100793.19;;;2.58;76.40
44138;BME280;29800;55.942;37.314;2024-03-02T06:58:12;100783.88;;;2.61;76.40
44138;BME280;29800;55.942;37.314;2024-03-02T07:00:38;100797.22;;;2.62;75.75
44138;BME280;29800;55.942;37.314;2024-03-02T07:03:04;100793.03;;;2.60;75.74
44138;BME280;29800;55.942;37.314;2024-03-02T07:05:30;100793.19;;;2.58;76.32
44138;BME280;29800;55.942;37.314;2024-03-02T07:07:57;100789.84;;;2.56;75.90
44138;BME280;29800;55.942;37.314;2024-03-02T07:10:23;100795.25;;;2.56;76.34
44138;BME280;29800;55.942;37.314;2024-03-02T07:12:50;100792.53;;;2.56;76.42
44138;BME280;29800;55.942;37.314;2024-03-02T07:15:16;100792.16;;;2.59;76.40
44138;BME280;29800;55.942;37.314;2024-03-02T07:17:51;100798.09;;;2.63;75.58
44138;BME280;29800;55.942;37.314;2024-03-02T07:20:17;100787.63;;;2.60;76.47
44138;BME280;29800;55.942;37.314;2024-03-02T07:22:43;100792.16;;;2.59;75.84
44138;BME280;29800;55.942;37.314;2024-03-02T07:25:09;100784.06;;;2.59;75.95
44138;BME280;29800;55.942;37.314;2024-03-02T07:27:35;100787.28;;;2.63;75.84
44138;BME280;29800;55.942;37.314;2024-03-02T07:30:06;100784.41;;;2.64;76.28
44138;BME280;29800;55.942;37.314;2024-03-02T07:32:32;100780.66;;;2.65;75.68
44138;BME280;29800;55.942;37.314;2024-03-02T07:34:58;100786.06;;;2.65;76.08
44138;BME280;29800;55.942;37.314;2024-03-02T07:37:25;100790.66;;;2.65;75.65
44138;BME280;29800;55.942;37.314;2024-03-02T07:39:51;100791.81;;;2.62;76.33
44138;BME280;29800;55.942;37.314;2024-03-02T07:42:17;100788.13;;;2.63;75.61
44138;BME280;29800;55.942;37.314;2024-03-02T07:44:44;100779.00;;;2.64;76.19
44138;BME280;29800;55.942;37.314;2024-03-02T07:47:11;100788.59;;;2.67;76.27
44138;BME280;29800;55.942;37.314;2024-03-02T07:49:37;100776.78;;;2.68;75.80
44138;BME280;29800;55.942;37.314;2024-03-02T07:52:04;100777.44;;;2.70;75.44
44138;BME280;29800;55.942;37.314;2024-03-02T07:54:30;100770.00;;;2.72;75.95
44138;BME280;29800;55.942;37.314;2024-03-02T07:56:56;100776.94;;;2.74;76.12
44138;BME280;29800;55.942;37.314;2024-03-02T07:59:22;100769.66;;;2.75;75.94
44138;BME280;29800;55.942;37.314;2024-03-02T08:01:49;100773.22;;;2.75;75.19
44138;BME280;29800;55.942;37.314;2024-03-02T08:04:16;100764.59;;;2.72;75.22
44138;BME280;29800;55.942;37.314;2024-03-02T08:06:42;100770.00;;;2.72;75.57
44138;BME280;29800;55.942;37.314;2024-03-02T08:09:08;100776.09;;;2.74;75.58
44138;BME280;29800;55.942;37.314;2024-03-02T08:11:38;100773.91;;;2.78;75.67
44138;BME280;29800;55.942;37.314;2024-03-02T08:14:04;100775.56;;;2.79;75.41
44138;BME280;29800;55.942;37.314;2024-03-02T08:16:31;100768.13;;;2.81;75.24
44138;BME280;29800;55.942;37.314;2024-03-02T08:18:59;100773.53;;;2.81;74.85
44138;BME280;29800;55.942;37.314;2024-03-02T08:21:25;100775.22;;;2.82;75.27
44138;BME280;29800;55.942;37.314;2024-03-02T08:23:51;100771.50;;;2.83;75.23
44138;BME280;29800;55.942;37.314;2024-03-02T08:26:18;100772.81;;;2.87;75.31
44138;BME280;29800;55.942;37.314;2024-03-02T08:28:44;100770.81;;;2.89;74.78
44138;BME280;29800;55.942;37.314;2024-03-02T08:31:10;100776.88;;;2.91;74.59
44138;BME280;29800;55.942;37.314;2024-03-02T08:33:36;100772.97;;;2.93;74.98
44138;BME280;29800;55.942;37.314;2024-03-02T08:36:03;100771.97;;;2.94;74.73
44138;BME280;29800;55.942;37.314;2024-03-02T08:38:29;100775.16;;;2.98;74.73
44138;BME280;29800;55.942;37.314;2024-03-02T08:40:56;100777.50;;;3.01;74.40
44138;BME280;29800;55.942;37.314;2024-03-02T08:43:22;100772.97;;;3.02;74.13
44138;BME280;29800;55.942;37.314;2024-03-02T08:45:49;100773.81;;;3.02;74.01
44138;BME280;29800;55.942;37.314;2024-03-02T08:48:16;100774.81;;;3.01;74.28
44138;BME280;29800;55.942;37.314;2024-03-02T08:50:42;100769.41;;;3.01;73.65
44138;BME280;29800;55.942;37.314;2024-03-02T08:53:08;100767.34;;;3.03;73.60
44138;BME280;29800;55.942;37.314;2024-03-02T08:55:34;100770.06;;;3.03;73.83
44138;BME280;29800;55.942;37.314;2024-03-02T08:58:01;100765.34;;;3.05;73.40
44138;BME280;29800;55.942;37.314;2024-03-02T09:00:27;100774.13;;;3.07;73.17
44138;BME280;29800;55.942;37.314;2024-03-02T09:02:53;100770.41;;;3.08;73.31
44138;BME280;29800;55.942;37.314;2024-03-02T09:05:20;100757.72;;;3.09;73.21
44138;BME280;29800;55.942;37.314;2024-03-02T09:07:46;100760.06;;;3.12;72.47
44138;BME280;29800;55.942;37.314;2024-03-02T09:10:12;100766.63;;;3.18;73.11
44138;BME280;29800;55.942;37.314;2024-03-02T09:12:38;100760.84;;;3.21;72.87
44138;BME280;29800;55.942;37.314;2024-03-02T09:15:05;100762.22;;;3.25;72.03
44138;BME280;29800;55.942;37.314;2024-03-02T09:17:32;100760.34;;;3.25;72.36
44138;BME280;29800;55.942;37.314;2024-03-02T09:19:58;100766.75;;;3.24;71.83
44138;BME280;29800;55.942;37.314;2024-03-02T09:22:24;100762.88;;;3.27;71.53
44138;BME280;29800;55.942;37.314;2024-03-02T09:24:51;100758.28;;;3.27;71.83
44138;BME280;29800;55.942;37.314;2024-03-02T09:27:17;100765.88;;;3.32;71.39
44138;BME280;29800;55.942;37.314;2024-03-02T09:29:43;100757.22;;;3.37;70.96
44138;BME280;29800;55.942;37.314;2024-03-02T09:32:12;100763.13;;;3.40;71.54
44138;BME280;29800;55.942;37.314;2024-03-02T09:34:40;100759.88;;;3.45;70.92
44138;BME280;29800;55.942;37.314;2024-03-02T09:37:06;100757.00;;;3.46;70.46
44138;BME280;29800;55.942;37.314;2024-03-02T09:39:33;100754.28;;;3.46;70.44
44138;BME280;29800;55.942;37.314;2024-03-02T09:42:00;100754.13;;;3.48;70.70
44138;BME280;29800;55.942;37.314;2024-03-02T09:44:26;100749.19;;;3.52;70.48
44138;BME280;29800;55.942;37.314;2024-03-02T09:46:53;100753.19;;;3.56;70.39
44138;BME280;29800;55.942;37.314;2024-03-02T09:49:31;100748.94;;;3.61;70.47
44138;BME280;29800;55.942;37.314;2024-03-02T09:51:57;100749.44;;;3.65;70.02
44138;BME280;29800;55.942;37.314;2024-03-02T09:54:24;100741.59;;;3.70;69.72
44138;BME280;29800;55.942;37.314;2024-03-02T09:56:50;100755.63;;;3.74;69.59
44138;BME280;29800;55.942;37.314;2024-03-02T09:59:17;100748.34;;;3.74;69.34
44138;BME280;29800;55.942;37.314;2024-03-02T10:02:00;100745.59;;;3.82;69.24
44138;BME280;29800;55.942;37.314;2024-03-02T10:04:29;100744.53;;;3.83;68.89
44138;BME280;29800;55.942;37.314;2024-03-02T10:07:15;100745.50;;;3.91;68.82
44138;BME280;29800;55.942;37.314;2024-03-02T10:09:43;100738.22;;;3.91;68.42
44138;BME280;29800;55.942;37.314;2024-03-02T10:12:11;100745.81;;;3.96;68.28
44138;BME280;29800;55.942;37.314;2024-03-02T10:14:38;100745.09;;;4.02;68.10
44138;BME280;29800;55.942;37.314;2024-03-02T10:17:08;100749.75;;;4.08;67.49
44138;BME280;29800;55.942;37.314;2024-03-02T10:19:35;100746.31;;;4.14;67.09
44138;BME280;29800;55.942;37.314;2024-03-02T10:22:04;100751.66;;;4.22;66.90
44138;BME280;29800;55.942;37.314;2024-03-02T10:24:39;100744.69;;;4.28;66.54
44138;BME280;29800;55.942;37.314;2024-03-02T10:27:16;100753.09;;;4.33;66.21
44138;BME280;29800;55.942;37.314;2024-03-02T10:29:46;100762.53;;;4.37;65.87
44138;BME280;29800;55.942;37.314;2024-03-02T10:32:13;100772.53;;;4.37;65.31
44138;BME280;29800;55.942;37.314;2024-03-02T10:34:40;100774.59;;;4.35;65.31
44138;BME280;29800;55.942;37.314;2024-03-02T10:37:07;100774.97;;;4.32;65.41
44138;BME280;29800;55.942;37.314;2024-03-02T10:39:37;100772.44;;;4.30;64.96
44138;BME280;29800;55.942;37.314;2024-03-02T10:42:09;100774.69;;;4.27;65.24
44138;BME280;29800;55.942;37.314;2024-03-02T10:44:35;100775.03;;;4.23;65.03
44138;BME280;29800;55.942;37.314;2024-03-02T10:47:03;100775.75;;;4.17;65.31
44138;BME280;29800;55.942;37.314;2024-03-02T10:49:30;100769.03;;;4.13;65.31
44138;BME280;29800;55.942;37.314;2024-03-02T10:51:58;100767.53;;;4.11;65.50
44138;BME280;29800;55.942;37.314;2024-03-02T10:54:25;100774.81;;;4.10;65.47
44138;BME280;29800;55.942;37.314;2024-03-02T10:57:03;100774.06;;;4.16;65.27
44138;BME280;29800;55.942;37.314;2024-03-02T10:59:37;100758.84;;;4.15;64.88
44138;BME280;29800;55.942;37.314;2024-03-02T11:02:11;100763.63;;;4.13;65.00
44138;BME280;29800;55.942;37.314;2024-03-02T11:04:39;100767.72;;;4.09;65.19
44138;BME280;29800;55.942;37.314;2024-03-02T11:07:08;100762.66;;;4.06;65.54
44138;BME280;29800;55.942;37.314;2024-03-02T11:09:54;100765.66;;;4.11;65.83
44138;BME280;29800;55.942;37.314;2024-03-02T11:12:36;100761.75;;;4.14;65.92
44138;BME280;29800;55.942;37.314;2024-03-02T11:15:12;100755.66;;;4.12;65.64
44138;BME280;29800;55.942;37.314;2024-03-02T11:17:43;100765.19;;;4.08;65.85
44138;BME280;29800;55.942;37.314;2024-03-02T11:20:10;100759.94;;;4.06;65.59
44138;BME280;29800;55.942;37.314;2024-03-02T11:22:36;100752.16;;;4.03;65.66
44138;BME280;29800;55.942;37.314;2024-03-02T11:25:03;100755.25;;;4.00;65.80
44138;BME280;29800;55.942;37.314;2024-03-02T11:33:00;100744.03;;;4.03;65.84
44138;BME280;29800;55.942;37.314;2024-03-02T11:35:28;100746.75;;;4.03;65.78
44138;BME280;29800;55.942;37.314;2024-03-02T11:37:54;100742.56;;;4.00;65.92
44138;BME280;29800;55.942;37.314;2024-03-02T11:40:28;100740.50;;;4.02;66.09
44138;BME280;29800;55.942;37.314;2024-03-02T11:42:54;100740.03;;;3.99;66.10
44138;BME280;29800;55.942;37.314;2024-03-02T11:45:27;100742.38;;;4.02;66.08
44138;BME280;29800;55.942;37.314;2024-03-02T11:47:54;100740.88;;;3.99;65.73
44138;BME280;29800;55.942;37.314;2024-03-02T11:50:41;100744.34;;;4.08;66.20
44138;BME280;29800;55.942;37.314;2024-03-02T11:53:09;100748.16;;;3.99;65.78
44138;BME280;29800;55.942;37.314;2024-03-02T11:55:36;100744.13;;;3.95;65.63
44138;BME280;29800;55.942;37.314;2024-03-02T11:58:04;100740.75;;;3.93;65.76
44138;BME280;29800;55.942;37.314;2024-03-02T12:00:30;100740.03;;;3.99;65.77
44138;BME280;29800;55.942;37.314;2024-03-02T12:03:07;100736.88;;;4.10;65.70
44138;BME280;29800;55.942;37.314;2024-03-02T12:05:35;100737.34;;;4.14;65.43
44138;BME280;29800;55.942;37.314;2024-03-02T12:08:04;100739.16;;;4.21;65.22
44138;BME280;29800;55.942;37.314;2024-03-02T12:10:31;100745.88;;;4.26;65.30
44138;BME280;29800;55.942;37.314;2024-03-02T12:13:04;100731.88;;;4.37;65.02
44138;BME280;29800;55.942;37.314;2024-03-02T12:15:34;100732.81;;;4.44;64.99
44138;BME280;29800;55.942;37.314;2024-03-02T12:18:03;100734.97;;;4.49;64.32
44138;BME280;29800;55.942;37.314;2024-03-02T12:20:31;100732.53;;;4.54;64.32
44138;BME280;29800;55.942;37.314;2024-03-02T12:22:59;100735.94;;;4.56;64.07
44138;BME280;29800;55.942;37.314;2024-03-02T12:25:26;100737.13;;;4.53;63.70
44138;BME280;29800;55.942;37.314;2024-03-02T12:27:55;100733.00;;;4.57;63.91
44138;BME280;29800;55.942;37.314;2024-03-02T12:30:22;100735.94;;;4.56;63.77
44138;BME280;29800;55.942;37.314;2024-03-02T12:32:49;100740.94;;;4.59;63.89
44138;BME280;29800;55.942;37.314;2024-03-02T12:35:18;100743.09;;;4.64;63.57
44138;BME280;29800;55.942;37.314;2024-03-02T12:37:45;100736.03;;;4.63;63.40
44138;BME280;29800;55.942;37.314;2024-03-02T12:40:13;100750.59;;;4.62;63.26
44138;BME280;29800;55.942;37.314;2024-03-02T12:42:40;100744.34;;;4.61;62.89
44138;BME280;29800;55.942;37.314;2024-03-02T12:45:08;100742.63;;;4.60;62.91
44138;BME280;29800;55.942;37.314;2024-03-02T12:47:54;100745.91;;;4.55;63.10
44138;BME280;29800;55.942;37.314;2024-03-02T12:50:21;100742.91;;;4.50;63.11
44138;BME280;29800;55.942;37.314;2024-03-02T12:52:54;100753.03;;;4.56;62.86
44138;BME280;29800;55.942;37.314;2024-03-02T12:55:24;100747.31;;;4.51;63.16
44138;BME280;29800;55.942;37.314;2024-03-02T12:57:51;100744.97;;;4.48;62.99